Time;durP1;ratioP1;P1;durP2;ratioP2;P2;SDS_P1;SDS_P2;PMS_P1;PMS_P2;Temp;Humidity;BMP_temperature;BMP_pressure;BME280_temperature;BME280_humidity;BME280_pressure;Samples;Min_cycle;Max_cycle;Signal;HPM_P1;HPM_P2
2021/08/21 00:01:39;;;;;;;;;3.00;3.00;;;;;23.03;48.66;101115.28;5071863;27;45334;-50
2021/08/21 00:04:07;;;;;;;;;3.00;3.00;;;;;23.01;48.47;101109.13;5080445;27;45744;-51
2021/08/21 00:06:33;;;;;;;;;4.00;4.00;;;;;23.01;48.95;101113.66;5077587;27;47195;-50
2021/08/21 00:08:59;;;;;;;;;3.00;3.00;;;;;23.00;48.88;101115.50;5058430;28;45325;-53
2021/08/21 00:11:24;;;;;;;;;3.75;3.00;;;;;22.98;48.66;101109.31;5068589;28;49559;-49
2021/08/21 00:13:49;;;;;;;;;4.00;4.00;;;;;22.97;48.52;101112.97;5061537;28;45365;-51
2021/08/21 00:16:15;;;;;;;;;3.00;2.50;;;;;22.96;48.94;101102.25;5061250;28;47300;-49
2021/08/21 00:18:40;;;;;;;;;3.00;3.00;;;;;22.95;48.80;101109.50;5061239;28;45443;-49
2021/08/21 00:21:06;;;;;;;;;4.00;2.67;;;;;22.94;49.02;101105.06;5060356;28;45452;-50
2021/08/21 00:23:31;;;;;;;;;3.00;3.00;;;;;22.93;49.19;101111.47;5061529;28;45656;-49
2021/08/21 00:25:57;;;;;;;;;3.75;3.00;;;;;22.92;48.76;101107.03;5059839;28;47150;-49
2021/08/21 00:28:22;;;;;;;;;5.25;4.00;;;;;22.90;49.02;101096.31;5061462;27;45924;-50
2021/08/21 00:30:48;;;;;;;;;4.33;3.33;;;;;22.88;48.78;101103.66;5058785;28;45374;-49
2021/08/21 00:33:14;;;;;;;;;4.50;4.50;;;;;22.88;49.20;101098.25;5073893;27;46079;-53
2021/08/21 00:35:39;;;;;;;;;4.00;4.00;;;;;22.87;49.14;101096.50;5040910;28;46904;-52
2021/08/21 00:38:05;;;;;;;;;4.00;4.00;;;;;22.85;49.07;101089.44;5046185;28;45445;-53
2021/08/21 00:40:31;;;;;;;;;3.00;3.00;;;;;22.85;49.08;101086.72;5054145;28;45504;-47
2021/08/21 00:42:56;;;;;;;;;4.50;4.00;;;;;22.83;48.92;101084.13;5061331;28;45320;-50
2021/08/21 00:45:22;;;;;;;;;3.50;3.50;;;;;22.83;49.72;101088.69;5060933;28;47049;-49
2021/08/21 00:47:48;;;;;;;;;6.00;4.00;;;;;22.85;49.47;101090.31;5088438;27;45403;-52
2021/08/21 00:50:14;;;;;;;;;3.50;3.50;;;;;22.85;49.23;101082.19;5061313;28;45483;-52
2021/08/21 00:52:40;;;;;;;;;2.67;2.67;;;;;22.85;49.32;101081.31;5059563;28;45469;-52
2021/08/21 00:55:06;;;;;;;;;4.00;4.00;;;;;22.85;49.26;101078.63;5060953;28;47289;-51
2021/08/21 00:57:32;;;;;;;;;5.75;3.00;;;;;22.82;49.34;101082.38;5060931;27;45335;-52
2021/08/21 00:59:58;;;;;;;;;3.50;3.50;;;;;22.82;49.51;101082.38;5060968;28;45357;-51
2021/08/21 01:02:24;;;;;;;;;4.75;4.75;;;;;22.83;49.38;101081.44;5061195;28;45528;-51
2021/08/21 01:04:56;;;;;;;;;6.25;6.25;;;;;22.82;49.40;101078.78;5059105;28;46907;-50
2021/08/21 01:07:27;;;;;;;;;4.00;4.00;;;;;22.81;49.29;101080.63;5059486;28;45496;-48
2021/08/21 01:09:53;;;;;;;;;4.33;4.33;;;;;22.79;49.63;101074.47;5060866;28;45776;-48
2021/08/21 01:12:21;;;;;;;;;4.67;4.67;;;;;22.77;49.45;101079.13;5059297;28;45588;-49
2021/08/21 01:14:48;;;;;;;;;4.00;4.00;;;;;22.75;49.65;101078.34;5077334;28;47173;-51
2021/08/21 01:17:15;;;;;;;;;6.00;5.75;;;;;22.73;49.52;101074.00;5080507;27;45336;-52
2021/08/21 01:19:43;;;;;;;;;4.67;4.67;;;;;22.71;49.58;101071.38;5080625;27;45555;-49
2021/08/21 01:22:15;;;;;;;;;4.00;4.00;;;;;22.69;49.57;101073.34;5081138;27;45680;-46
2021/08/21 01:24:46;;;;;;;;;4.00;4.00;;;;;22.69;49.84;101067.06;5080018;27;48245;-52
2021/08/21 01:27:21;;;;;;;;;4.00;4.00;;;;;22.68;49.43;101070.75;5080444;27;45349;-50
2021/08/21 01:29:48;;;;;;;;;5.33;5.33;;;;;22.68;49.88;101070.75;5077524;27;45373;-50
2021/08/21 01:32:15;;;;;;;;;3.67;3.67;;;;;22.67;49.95;101067.16;5061622;28;45405;-50
2021/08/21 01:34:41;;;;;;;;;6.00;6.00;;;;;22.67;49.60;101066.31;5080447;27;46535;-50
2021/08/21 01:37:07;;;;;;;;;5.25;5.00;;;;;22.67;50.03;101069.00;5080328;27;45611;-49
2021/08/21 01:39:32;;;;;;;;;4.75;4.75;;;;;22.68;49.87;101068.91;5065199;28;45454;-48
2021/08/21 01:41:58;;;;;;;;;4.00;4.00;;;;;22.71;50.31;101065.97;5092714;27;45557;-50
2021/08/21 01:44:23;;;;;;;;;6.00;4.75;;;;;22.73;49.91;101066.75;5080407;27;47384;-50
2021/08/21 01:46:49;;;;;;;;;4.00;4.00;;;;;22.74;49.68;101063.09;5071348;27;46114;-50
2021/08/21 01:49:19;;;;;;;;;5.00;5.00;;;;;22.74;49.87;101065.81;5067385;27;45374;-49
2021/08/21 01:51:47;;;;;;;;;4.25;4.25;;;;;22.75;49.65;101061.25;5080629;27;45420;-52
2021/08/21 01:54:15;;;;;;;;;3.75;3.75;;;;;22.74;49.68;101060.38;5080127;27;46414;-51
2021/08/21 01:57:02;;;;;;;;;7.00;6.00;;;;;22.74;49.93;101060.38;5047765;27;45520;-53
2021/08/21 01:59:35;;;;;;;;;4.75;4.75;;;;;22.73;50.27;101053.22;5072520;27;45382;-50
2021/08/21 02:02:04;;;;;;;;;5.50;4.75;;;;;22.72;49.86;101059.59;5052050;28;45333;-47
2021/08/21 02:04:29;;;;;;;;;6.25;5.50;;;;;22.70;49.86;101055.25;5059871;28;46382;-51
2021/08/21 02:06:55;;;;;;;;;5.00;5.00;;;;;22.69;50.13;101050.81;5059762;28;45451;-47
2021/08/21 02:09:23;;;;;;;;;4.25;4.25;;;;;22.67;50.03;101052.78;5059743;28;45721;-50
2021/08/21 02:11:50;;;;;;;;;5.00;5.00;;;;;22.65;50.26;101052.88;5058128;28;45533;-46
2021/08/21 02:14:17;;;;;;;;;5.75;5.75;;;;;22.63;50.03;101046.72;5090594;27;48309;-51
2021/08/21 02:16:44;;;;;;;;;4.00;3.00;;;;;22.60;50.16;101053.16;5065711;28;46046;-50
2021/08/21 02:19:10;;;;;;;;;6.00;6.00;;;;;22.59;49.94;101046.03;5078592;28;45472;-48
2021/08/21 02:21:36;;;;;;;;;7.00;7.00;;;;;22.57;50.66;101044.41;5078665;28;45641;-49
2021/08/21 02:24:02;;;;;;;;;7.75;7.75;;;;;22.55;50.48;101041.78;5078844;27;47317;-50
2021/08/21 02:26:28;;;;;;;;;6.00;5.25;;;;;22.53;50.71;101037.47;5079346;27;45430;-47
2021/08/21 02:28:54;;;;;;;;;6.25;6.25;;;;;22.52;50.72;101038.44;5095230;27;45344;-49
2021/08/21 02:31:21;;;;;;;;;7.00;5.00;;;;;22.49;50.51;101042.22;5064492;27;45401;-47
2021/08/21 02:33:47;;;;;;;;;9.50;7.25;;;;;22.47;50.92;101051.38;5073938;27;47229;-50
2021/08/21 02:36:14;;;;;;;;;9.75;8.00;;;;;22.45;51.14;101043.38;5079455;27;45840;-52
2021/08/21 02:38:41;;;;;;;;;5.25;5.25;;;;;22.45;50.74;101045.22;5070547;27;45453;-52
2021/08/21 02:41:06;;;;;;;;;7.25;7.25;;;;;22.43;50.97;101039.03;5085481;27;45321;-47
2021/08/21 02:43:32;;;;;;;;;6.75;6.50;;;;;22.42;51.23;101040.00;5079121;27;46051;-50
2021/08/21 02:45:57;;;;;;;;;9.00;9.00;;;;;22.40;51.32;101039.25;5076368;27;45478;-49
2021/08/21 02:48:24;;;;;;;;;10.00;8.00;;;;;22.38;51.31;101033.06;5064054;28;45207;-48
2021/08/21 02:50:50;;;;;;;;;7.00;7.00;;;;;22.36;51.68;101040.41;5079416;27;45360;-49
2021/08/21 02:53:15;;;;;;;;;6.75;6.00;;;;;22.35;51.61;101034.13;5073836;27;47478;-51
2021/08/21 02:55:41;;;;;;;;;7.00;7.00;;;;;22.37;51.71;101034.03;5038893;28;45771;-50
2021/08/21 02:58:06;;;;;;;;;8.75;8.75;;;;;22.37;51.69;101034.03;5038934;28;45365;-51
2021/08/21 03:00:32;;;;;;;;;9.00;9.00;;;;;22.38;51.69;101028.53;5047131;28;45428;-53
2021/08/21 03:02:58;;;;;;;;;7.00;7.00;;;;;22.39;51.48;101035.69;5058343;28;46524;-55
2021/08/21 03:05:24;;;;;;;;;7.00;7.00;;;;;22.39;51.45;101029.41;5059202;28;45376;-56
2021/08/21 03:07:49;;;;;;;;;8.00;8.00;;;;;22.41;51.88;101024.75;5058619;28;45371;-55
2021/08/21 03:10:15;;;;;;;;;10.50;8.75;;;;;22.41;51.68;101033.72;5058876;28;45246;-56
2021/08/21 03:12:41;;;;;;;;;8.00;8.00;;;;;22.42;51.53;101021.06;5058210;28;46549;-56
2021/08/21 03:15:07;;;;;;;;;9.75;8.25;;;;;22.44;51.24;101025.41;5078960;27;45508;-57
2021/08/21 03:17:32;;;;;;;;;8.25;8.25;;;;;22.45;51.82;101026.28;5079026;27;45412;-56
2021/08/21 03:19:58;;;;;;;;;9.50;9.50;;;;;22.46;51.60;101026.16;5079455;27;45227;-56
2021/08/21 03:22:23;;;;;;;;;8.00;7.75;;;;;22.47;51.35;101030.59;5078541;27;48044;-55
2021/08/21 03:24:49;;;;;;;;;7.00;7.00;;;;;22.47;51.69;101029.75;5078555;27;46292;-56
2021/08/21 03:27:14;;;;;;;;;10.00;8.00;;;;;22.49;51.87;101034.09;5078571;27;44841;-56
2021/08/21 03:29:40;;;;;;;;;8.50;8.50;;;;;22.48;52.03;101026.06;5076675;28;45377;-56
2021/08/21 03:32:06;;;;;;;;;8.75;8.75;;;;;22.47;51.70;101027.03;5059031;28;47786;-56
2021/08/21 03:34:32;;;;;;;;;10.50;9.50;;;;;22.45;51.71;101018.16;5078828;27;45417;-54
2021/08/21 03:36:58;;;;;;;;;8.75;7.50;;;;;22.41;52.04;101016.63;5080596;28;45603;-56
2021/08/21 03:39:23;;;;;;;;;8.25;8.25;;;;;22.40;51.64;101021.19;5069640;27;45479;-55
2021/08/21 03:41:49;;;;;;;;;9.00;9.00;;;;;22.38;52.12;101017.72;5076223;28;47148;-55
2021/08/21 03:44:14;;;;;;;;;10.00;9.00;;;;;22.38;51.90;101015.00;5082621;27;45905;-56
2021/08/21 03:46:40;;;;;;;;;9.00;9.00;;;;;22.37;52.11;101020.53;5073876;27;45352;-56
2021/08/21 03:49:06;;;;;;;;;10.25;10.25;;;;;22.37;52.06;101020.53;5071184;27;45505;-56
2021/08/21 03:51:32;;;;;;;;;9.25;8.00;;;;;22.35;51.92;101006.22;5080982;27;47010;-56
2021/08/21 03:53:57;;;;;;;;;8.00;8.00;;;;;22.33;51.76;101007.19;5041901;28;45273;-56
2021/08/21 03:56:23;;;;;;;;;8.75;8.50;;;;;22.32;51.67;101018.09;5041704;28;45597;-55
2021/08/21 03:58:48;;;;;;;;;8.50;7.25;;;;;22.29;52.06;101002.97;5074273;27;45442;-56
2021/08/21 04:01:14;;;;;;;;;8.25;6.00;;;;;22.28;52.18;101003.06;5051332;28;47121;-56
2021/08/21 04:03:39;;;;;;;;;6.00;6.00;;;;;22.26;51.98;101005.88;5094706;27;45386;-56
2021/08/21 04:06:07;;;;;;;;;8.00;8.00;;;;;22.23;52.68;101000.69;5058929;28;45413;-55
2021/08/21 04:08:33;;;;;;;;;8.00;6.00;;;;;22.22;52.47;100998.03;5057808;28;45362;-58
2021/08/21 04:10:58;;;;;;;;;8.00;8.00;;;;;22.20;52.67;100997.28;5053344;28;47342;-58
2021/08/21 04:13:24;;;;;;;;;7.50;7.00;;;;;22.18;52.87;101001.94;5058515;28;47717;-57
2021/08/21 04:15:50;;;;;;;;;7.25;7.25;;;;;22.16;52.43;100996.63;5060594;28;45353;-56
2021/08/21 04:18:15;;;;;;;;;9.25;7.50;;;;;22.15;52.72;100996.72;5059490;28;45365;-57
2021/08/21 04:20:41;;;;;;;;;8.25;7.25;;;;;22.13;52.84;100998.66;5059217;28;47296;-57
2021/08/21 04:23:07;;;;;;;;;7.75;7.75;;;;;22.12;52.42;100991.53;5043068;28;45471;-58
2021/08/21 04:25:32;;;;;;;;;6.50;6.50;;;;;22.11;52.75;100992.50;5058566;28;45725;-57
2021/08/21 04:27:57;;;;;;;;;6.75;6.75;;;;;22.08;52.70;100993.53;5058693;28;45460;-58
2021/08/21 04:30:23;;;;;;;;;8.25;7.75;;;;;22.07;52.34;100991.81;5059342;28;46294;-58
2021/08/21 04:32:48;;;;;;;;;8.00;8.00;;;;;22.04;52.84;100984.75;5055882;28;45384;-58
2021/08/21 04:35:14;;;;;;;;;9.75;8.75;;;;;22.04;52.65;100982.03;5053391;28;45288;-58
2021/08/21 04:37:39;;;;;;;;;8.50;8.00;;;;;22.04;52.98;100981.19;5060207;28;45538;-58
2021/08/21 04:40:06;;;;;;;;;8.75;8.00;;;;;22.02;52.97;100983.97;5051335;28;48197;-58
2021/08/21 04:42:31;;;;;;;;;7.75;7.75;;;;;22.01;52.76;100984.09;5059207;28;46063;-52
2021/08/21 04:44:59;;;;;;;;;7.50;7.50;;;;;21.98;53.18;100989.69;5061289;28;45529;-52
2021/08/21 04:47:28;;;;;;;;;9.50;8.00;;;;;21.95;53.04;100987.16;5059615;28;45565;-52
2021/08/21 04:49:57;;;;;;;;;6.25;6.25;;;;;21.91;53.08;100989.22;5052442;28;47313;-53
2021/08/21 04:52:23;;;;;;;;;7.25;7.00;;;;;21.87;53.39;100986.81;5060416;28;46031;-52
2021/08/21 04:54:49;;;;;;;;;6.00;6.00;;;;;21.83;53.56;100986.13;5074180;27;45337;-52
2021/08/21 04:57:15;;;;;;;;;10.25;9.50;;;;;21.81;53.27;100992.59;5054223;27;45521;-53
2021/08/21 04:59:41;;;;;;;;;7.00;7.00;;;;;21.79;53.88;100995.41;5060499;28;47520;-53
2021/08/21 05:02:06;;;;;;;;;9.25;9.00;;;;;21.76;53.56;100992.91;5058246;28;45770;-54
2021/08/21 05:04:32;;;;;;;;;7.00;7.00;;;;;21.75;53.93;100985.78;5047077;28;45482;-54
2021/08/21 05:06:57;;;;;;;;;8.00;8.00;;;;;21.75;53.68;100991.16;5039503;28;45340;-54
2021/08/21 05:09:23;;;;;;;;;7.50;7.00;;;;;21.73;53.29;100988.56;5058053;28;46284;-54
2021/08/21 05:11:48;;;;;;;;;8.50;7.75;;;;;21.74;53.28;100998.41;5054802;28;45395;-57
2021/08/21 05:14:14;;;;;;;;;8.00;8.00;;;;;21.74;53.63;101001.09;5048757;28;45548;-53
2021/08/21 05:16:42;;;;;;;;;9.25;9.00;;;;;21.75;53.47;101004.69;5057163;28;45557;-55
2021/08/21 05:19:22;;;;;;;;;9.50;8.75;;;;;21.77;53.95;101002.75;5059481;28;47907;-54
2021/08/21 05:21:50;;;;;;;;;6.00;6.00;;;;;21.80;53.57;100996.28;5060125;28;45451;-54
2021/08/21 05:24:17;;;;;;;;;10.25;9.25;;;;;21.83;54.03;100994.22;5060688;28;45367;-52
2021/08/21 05:26:44;;;;;;;;;11.25;11.25;;;;;21.85;53.46;100996.81;5060136;27;45438;-50
2021/08/21 05:29:12;;;;;;;;;7.25;7.25;;;;;21.87;53.61;101003.03;5060359;28;48355;-51
2021/08/21 05:31:38;;;;;;;;;8.50;8.00;;;;;21.89;54.10;101001.09;5060293;28;45550;-54
2021/08/21 05:34:03;;;;;;;;;7.00;7.00;;;;;21.90;53.65;101000.13;5060938;28;45299;-56
2021/08/21 05:36:29;;;;;;;;;9.75;9.75;;;;;21.90;53.33;101003.69;5061066;27;45411;-53
2021/08/21 05:38:55;;;;;;;;;8.00;8.00;;;;;21.92;53.29;101003.59;5060363;28;48067;-53
2021/08/21 05:41:20;;;;;;;;;8.25;8.25;;;;;21.92;53.69;101007.16;5072495;28;45809;-53
2021/08/21 05:43:46;;;;;;;;;7.50;6.25;;;;;21.93;53.31;101011.59;5054805;28;45385;-51
2021/08/21 05:46:11;;;;;;;;;10.00;8.33;;;;;21.92;53.72;101004.47;5059766;28;45334;-52
2021/08/21 05:48:37;;;;;;;;;9.50;9.25;;;;;21.92;53.65;101015.25;5058448;28;47156;-52
2021/08/21 05:51:02;;;;;;;;;9.00;9.00;;;;;21.93;54.05;101014.28;5059332;28;45660;-53
2021/08/21 05:53:28;;;;;;;;;8.75;7.25;;;;;21.95;53.79;101014.19;5060067;28;45325;-52
2021/08/21 05:55:53;;;;;;;;;6.75;6.75;;;;;21.96;54.10;101016.78;5060267;28;45374;-53
2021/08/21 05:58:19;;;;;;;;;8.00;8.00;;;;;21.96;53.67;101016.78;5059314;28;48246;-52
2021/08/21 06:00:45;;;;;;;;;8.00;8.00;;;;;21.97;54.06;101018.53;5057315;28;45628;-54
2021/08/21 06:03:10;;;;;;;;;7.50;6.50;;;;;21.99;53.92;101019.31;5056609;28;45297;-54
2021/08/21 06:05:38;;;;;;;;;8.25;8.00;;;;;22.02;53.66;101018.25;5093132;27;45497;-57
2021/08/21 06:08:04;;;;;;;;;7.25;7.25;;;;;22.04;53.40;101021.72;5056345;28;46653;-54
2021/08/21 06:10:30;;;;;;;;;9.50;8.25;;;;;22.07;53.53;101017.97;5058592;28;45955;-55
2021/08/21 06:12:55;;;;;;;;;7.75;7.25;;;;;22.08;53.28;101014.31;5058722;28;45363;-55
2021/08/21 06:15:21;;;;;;;;;6.00;6.00;;;;;22.10;53.85;101012.38;5093259;27;45452;-55
2021/08/21 06:17:46;;;;;;;;;5.75;5.75;;;;;22.12;53.87;101010.44;5056582;28;46450;-50
2021/08/21 06:20:12;;;;;;;;;8.25;8.25;;;;;22.14;53.54;101013.91;5040064;28;45666;-54
2021/08/21 06:22:38;;;;;;;;;7.00;7.00;;;;;22.15;54.13;101012.94;5039542;28;45343;-53
2021/08/21 06:25:04;;;;;;;;;8.50;7.25;;;;;22.17;53.26;101005.59;5072955;27;45534;-52
2021/08/21 06:27:29;;;;;;;;;8.50;8.50;;;;;22.17;53.65;101009.16;5040495;28;48249;-50
2021/08/21 06:29:55;;;;;;;;;7.25;7.25;;;;;22.17;53.23;101006.47;5044133;28;45369;-51
2021/08/21 06:32:20;;;;;;;;;9.25;8.00;;;;;22.16;52.90;101011.97;5064808;28;45350;-50
2021/08/21 06:34:46;;;;;;;;;7.00;7.00;;;;;22.17;53.06;101017.28;5068137;27;45336;-54
2021/08/21 06:37:11;;;;;;;;;8.33;7.67;;;;;22.19;53.38;101014.47;5083797;27;46952;-53
2021/08/21 06:39:37;;;;;;;;;9.00;9.00;;;;;22.20;52.97;101011.66;5065814;27;45599;-56
2021/08/21 06:42:02;;;;;;;;;8.33;7.33;;;;;22.20;53.67;101006.25;5068704;28;45220;-55
2021/08/21 06:44:29;;;;;;;;;6.67;6.67;;;;;22.24;53.40;101010.53;5061952;27;45349;-54
2021/08/21 06:46:54;;;;;;;;;9.33;9.00;;;;;22.28;53.20;101005.78;5060289;28;47510;-55
2021/08/21 06:49:20;;;;;;;;;9.33;8.33;;;;;22.30;53.49;101007.41;5059169;28;45539;-54
2021/08/21 06:51:45;;;;;;;;;5.00;5.00;;;;;22.33;53.54;101000.91;5060586;27;45388;-54
2021/08/21 06:54:11;;;;;;;;;8.00;7.67;;;;;22.35;52.95;101001.66;5061926;28;45324;-53
2021/08/21 06:56:36;;;;;;;;;10.00;9.00;;;;;22.37;52.70;101001.59;5060154;28;48000;-53
2021/08/21 06:59:02;;;;;;;;;8.67;8.00;;;;;22.39;52.75;101003.22;5061759;27;45446;-54
2021/08/21 07:01:29;;;;;;;;;7.00;7.00;;;;;22.43;53.14;100982.25;5061145;28;45834;-53
2021/08/21 07:03:55;;;;;;;;;6.00;6.00;;;;;22.47;52.83;100986.47;5043867;28;45298;-49
2021/08/21 07:06:20;;;;;;;;;7.33;6.00;;;;;22.50;53.05;100989.00;5060040;28;46213;-53
2021/08/21 07:08:45;;;;;;;;;5.67;5.67;;;;;22.54;52.89;100985.09;5059926;28;45691;-54
2021/08/21 07:11:11;;;;;;;;;8.00;6.00;;;;;22.55;52.85;100993.09;5060559;28;45609;-57
2021/08/21 07:13:36;;;;;;;;;6.00;6.00;;;;;22.57;52.99;100988.47;5078182;28;45196;-54
2021/08/21 07:16:02;;;;;;;;;6.00;6.00;;;;;22.59;52.82;100994.63;5076471;27;47417;-54
2021/08/21 07:18:27;;;;;;;;;8.25;8.25;;;;;22.61;52.77;100987.31;5059063;28;45374;-54
2021/08/21 07:20:53;;;;;;;;;8.25;7.00;;;;;22.65;52.80;100998.78;5059872;28;45387;-52
2021/08/21 07:23:18;;;;;;;;;7.50;7.00;;;;;22.68;52.85;100997.69;5058316;28;45345;-52
2021/08/21 07:25:44;;;;;;;;;7.50;7.50;;;;;22.71;52.81;101003.75;5058387;28;46976;-54
2021/08/21 07:28:10;;;;;;;;;8.75;7.75;;;;;22.72;52.76;101000.06;5057390;28;45583;-50
2021/08/21 07:30:36;;;;;;;;;6.67;6.67;;;;;22.75;52.44;101004.44;5058188;28;45509;-52
2021/08/21 07:33:02;;;;;;;;;8.25;8.25;;;;;22.77;52.55;101000.66;5059927;27;45451;-52
2021/08/21 07:35:27;;;;;;;;;8.25;8.25;;;;;22.81;52.88;101002.16;5059937;28;47230;-53
2021/08/21 07:37:53;;;;;;;;;7.00;7.00;;;;;22.83;52.56;101011.06;5058287;28;45856;-54
2021/08/21 07:40:18;;;;;;;;;7.25;6.00;;;;;22.87;52.63;101018.03;5060042;28;45307;-52
2021/08/21 07:42:43;;;;;;;;;8.50;8.50;;;;;22.90;52.48;101009.69;5059414;27;45338;-51
2021/08/21 07:45:10;;;;;;;;;8.00;8.00;;;;;22.96;52.88;101012.94;5059054;28;47944;-52
2021/08/21 07:47:35;;;;;;;;;8.50;8.50;;;;;23.00;52.81;101007.22;5059211;28;45264;-51
2021/08/21 07:50:01;;;;;;;;;9.00;8.25;;;;;23.04;52.49;101011.44;5059287;28;45394;-52
2021/08/21 07:52:26;;;;;;;;;7.67;5.00;;;;;23.07;52.49;101004.94;5059336;28;45278;-52
2021/08/21 07:54:53;;;;;;;;;8.00;8.00;;;;;23.12;52.13;101014.50;5058870;28;47323;-53
2021/08/21 07:57:19;;;;;;;;;9.25;9.25;;;;;23.16;52.37;101005.19;5059088;28;45404;-52
2021/08/21 07:59:44;;;;;;;;;8.75;8.75;;;;;23.22;52.17;101006.59;5058315;28;45346;-53
2021/08/21 08:02:10;;;;;;;;;9.33;8.33;;;;;23.25;52.28;101008.22;5074909;27;45683;-53
2021/08/21 08:04:36;;;;;;;;;8.33;8.33;;;;;23.27;52.10;101004.44;5059761;28;46825;-55
2021/08/21 08:07:01;;;;;;;;;6.33;6.33;;;;;23.30;51.93;101001.50;5059143;28;45722;-51
2021/08/21 08:09:28;;;;;;;;;6.67;6.67;;;;;23.34;52.01;100997.59;5058323;28;45428;-51
2021/08/21 08:11:54;;;;;;;;;7.25;7.25;;;;;23.39;52.21;101005.44;5059133;28;45586;-53
2021/08/21 08:14:20;;;;;;;;;6.50;6.50;;;;;23.41;51.76;101001.63;5063070;28;47213;-51
2021/08/21 08:16:46;;;;;;;;;7.67;7.67;;;;;23.46;51.71;101006.72;5061333;28;45738;-52
2021/08/21 08:19:11;;;;;;;;;7.75;6.25;;;;;23.48;51.58;101011.03;5065770;28;45694;-55
2021/08/21 08:21:37;;;;;;;;;7.25;7.25;;;;;23.53;51.99;101004.44;5067040;28;45315;-51
2021/08/21 08:24:02;;;;;;;;;7.00;7.00;;;;;23.55;51.86;101006.06;5073855;28;46882;-53
2021/08/21 08:26:28;;;;;;;;;8.67;8.67;;;;;23.60;51.58;101009.31;5070043;28;45227;-52
2021/08/21 08:28:53;;;;;;;;;8.50;8.25;;;;;23.63;51.65;101003.72;5074828;27;45750;-51
2021/08/21 08:31:19;;;;;;;;;7.50;7.50;;;;;23.67;51.63;100998.94;5076381;27;45475;-53
2021/08/21 08:33:44;;;;;;;;;8.75;8.75;;;;;23.70;51.40;100990.56;5074439;27;47231;-54
2021/08/21 08:36:10;;;;;;;;;7.00;6.25;;;;;23.74;51.33;100992.06;5068578;28;45432;-54
2021/08/21 08:38:35;;;;;;;;;6.67;6.67;;;;;23.77;51.53;100990.03;5075000;27;45411;-54
2021/08/21 08:41:01;;;;;;;;;7.75;7.75;;;;;23.82;51.66;100997.81;5069976;28;45615;-52
2021/08/21 08:43:28;;;;;;;;;9.00;9.00;;;;;23.85;51.43;100992.16;5073106;27;45516;-53
2021/08/21 08:45:55;;;;;;;;;7.00;7.00;;;;;23.89;51.12;100992.84;5068340;28;45627;-53
2021/08/21 08:48:21;;;;;;;;;6.00;6.00;;;;;23.92;51.54;100989.88;5080015;27;45686;-53
2021/08/21 08:50:50;;;;;;;;;7.50;7.50;;;;;23.94;51.28;100987.94;5068856;28;45645;-54
2021/08/21 08:53:15;;;;;;;;;8.25;8.25;;;;;23.98;51.46;100993.00;5073468;27;47073;-52
2021/08/21 08:55:42;;;;;;;;;8.00;8.00;;;;;24.02;51.37;100993.66;5070520;28;45423;-53
2021/08/21 08:58:07;;;;;;;;;6.50;6.50;;;;;24.05;51.56;101005.13;5072426;28;45409;-52
2021/08/21 09:00:33;;;;;;;;;5.75;5.75;;;;;24.10;51.76;101004.78;5071528;28;45451;-54
2021/08/21 09:03:03;;;;;;;;;6.75;6.25;;;;;24.14;51.21;101005.44;5067705;28;45535;-54
2021/08/21 09:05:37;;;;;;;;;8.25;8.25;;;;;24.17;51.28;101014.22;5070996;28;45420;-54
2021/08/21 09:08:03;;;;;;;;;11.75;11.75;;;;;24.18;51.22;101001.53;5067859;28;45394;-52
2021/08/21 09:10:32;;;;;;;;;9.25;9.25;;;;;24.21;51.11;101012.13;5073628;28;45398;-53
2021/08/21 09:13:12;;;;;;;;;8.00;8.00;;;;;24.26;51.25;101013.53;5071958;28;47903;-52
2021/08/21 09:15:51;;;;;;;;;10.75;8.50;;;;;24.30;50.82;101012.38;5076863;27;45934;-53
2021/08/21 09:18:22;;;;;;;;;8.75;7.50;;;;;24.34;51.01;101008.44;5060219;27;46222;-53
2021/08/21 09:20:47;;;;;;;;;6.75;6.75;;;;;24.38;50.90;100997.34;5060604;28;45464;-53
2021/08/21 09:23:36;;;;;;;;;7.25;7.25;;;;;24.45;50.93;101012.19;5060535;28;47177;-54
2021/08/21 09:26:13;;;;;;;;;7.75;7.75;;;;;24.49;51.05;101011.84;5059367;28;45942;-54
2021/08/21 09:28:44;;;;;;;;;8.00;7.50;;;;;24.54;50.87;101020.53;5060352;28;45807;-53
2021/08/21 09:31:11;;;;;;;;;7.25;6.25;;;;;24.59;50.89;101021.03;5055386;28;45373;-54
2021/08/21 09:33:42;;;;;;;;;9.25;9.25;;;;;24.62;50.95;101015.34;5056480;28;46414;-52
2021/08/21 09:36:25;;;;;;;;;8.67;8.67;;;;;24.66;50.60;101013.31;5059354;28;45300;-52
2021/08/21 09:38:51;;;;;;;;;8.00;8.00;;;;;24.68;50.43;101005.91;5060370;28;45427;-53
2021/08/21 09:41:16;;;;;;;;;9.00;8.00;;;;;24.71;50.47;101004.78;5073571;27;45664;-53
2021/08/21 09:43:42;;;;;;;;;9.25;9.25;;;;;24.74;50.24;101005.41;5040446;28;48437;-55
2021/08/21 09:46:12;;;;;;;;;7.25;6.25;;;;;24.78;50.24;100998.78;5044885;28;46327;-53
2021/08/21 09:48:55;;;;;;;;;11.00;10.00;;;;;24.84;50.78;101006.44;5060842;28;45367;-53
2021/08/21 09:51:36;;;;;;;;;9.75;8.50;;;;;24.91;50.43;100998.72;5060771;28;45548;-53
2021/08/21 09:54:05;;;;;;;;;9.00;8.50;;;;;24.97;50.73;100990.09;5060065;28;45309;-53
2021/08/21 09:56:37;;;;;;;;;8.67;8.33;;;;;25.05;50.13;100984.09;5075322;28;45877;-52
2021/08/21 09:59:04;;;;;;;;;7.25;7.25;;;;;25.12;50.61;100979.91;5059373;28;45365;-52
2021/08/21 10:01:30;;;;;;;;;9.50;9.50;;;;;25.20;50.42;100982.88;5059369;28;45465;-52
2021/08/21 10:03:57;;;;;;;;;7.67;6.67;;;;;25.28;49.93;100982.25;5060119;28;45607;-53
2021/08/21 10:06:23;;;;;;;;;7.00;7.00;;;;;25.37;49.55;100973.41;5092705;27;46043;-52
2021/08/21 10:08:54;;;;;;;;;9.25;8.25;;;;;25.45;49.78;100979.09;5059661;28;45388;-53
2021/08/21 10:11:20;;;;;;;;;8.67;7.67;;;;;25.51;49.37;100981.31;5059776;28;45511;-54
2021/08/21 10:13:47;;;;;;;;;9.00;9.00;;;;;25.59;49.29;100980.72;5067341;28;47808;-52
2021/08/21 10:16:13;;;;;;;;;8.00;7.25;;;;;25.66;49.21;100979.22;5070927;27;45412;-55
2021/08/21 10:18:40;;;;;;;;;9.00;9.00;;;;;25.73;49.54;100978.63;5062970;28;45344;-53
2021/08/21 10:21:06;;;;;;;;;8.75;7.50;;;;;25.81;49.02;100978.88;5053884;28;45566;-55
2021/08/21 10:23:31;;;;;;;;;8.00;6.00;;;;;25.89;49.29;100980.09;5071150;27;46943;-54
2021/08/21 10:26:05;;;;;;;;;7.75;7.75;;;;;25.95;48.74;100979.63;5054091;28;45263;-53
2021/08/21 10:28:35;;;;;;;;;8.25;8.25;;;;;26.00;49.12;100982.81;5073052;28;45343;-52
2021/08/21 10:31:01;;;;;;;;;9.75;9.75;;;;;26.08;49.12;100980.34;5062388;27;45301;-52
2021/08/21 10:33:29;;;;;;;;;10.50;9.00;;;;;26.14;48.27;100987.97;5072786;28;45777;-52
2021/08/21 10:35:57;;;;;;;;;8.25;8.25;;;;;26.20;48.13;100973.00;5069460;27;45294;-54
2021/08/21 10:38:39;;;;;;;;;8.00;7.67;;;;;26.25;48.08;100977.06;5073337;28;45251;-54
2021/08/21 10:41:07;;;;;;;;;9.50;8.75;;;;;26.30;48.59;100979.44;5069270;28;45435;-54
2021/08/21 10:43:46;;;;;;;;;8.00;8.00;;;;;26.33;48.59;100973.72;5073800;27;46335;-56
2021/08/21 10:46:32;;;;;;;;;7.00;7.00;;;;;26.36;48.65;100976.22;5070945;28;45953;-54
2021/08/21 10:49:04;;;;;;;;;6.00;6.00;;;;;26.42;48.31;100975.69;5060561;28;45457;-55
2021/08/21 10:51:43;;;;;;;;;8.00;8.00;;;;;26.49;48.13;100970.59;5074592;27;45337;-55
2021/08/21 10:54:27;;;;;;;;;7.33;7.33;;;;;26.58;48.27;100975.28;5068546;28;48355;-51
2021/08/21 10:56:58;;;;;;;;;6.75;6.75;;;;;26.67;47.67;100978.06;5068696;27;46169;-55
2021/08/21 10:59:45;;;;;;;;;8.00;8.00;;;;;26.76;47.14;100973.69;5073322;28;45480;-55
2021/08/21 11:02:25;;;;;;;;;6.75;6.75;;;;;26.84;47.37;100975.78;5064653;27;45292;-54
2021/08/21 11:04:52;;;;;;;;;5.33;5.00;;;;;26.90;47.59;100970.63;5063381;28;48423;-54
2021/08/21 11:07:29;;;;;;;;;7.33;7.33;;;;;26.94;46.90;100969.41;5071128;28;45669;-55
2021/08/21 11:10:18;;;;;;;;;6.25;6.25;;;;;27.02;47.51;100970.63;5066691;28;45520;-56
2021/08/21 11:12:47;;;;;;;;;7.33;7.33;;;;;27.07;47.22;100963.78;5063913;28;45658;-55
2021/08/21 11:15:18;;;;;;;;;10.00;10.00;;;;;27.15;47.06;100966.69;5072317;28;48361;-56
2021/08/21 11:17:44;;;;;;;;;8.75;8.75;;;;;27.21;47.03;100968.88;5064802;28;46268;-55
2021/08/21 11:20:32;;;;;;;;;9.50;9.50;;;;;27.28;46.70;100972.78;5059153;28;45393;-54
2021/08/21 11:23:07;;;;;;;;;8.00;8.00;;;;;27.35;46.92;100962.22;5067550;28;45301;-53
2021/08/21 11:25:39;;;;;;;;;7.00;7.00;;;;;27.38;46.39;100955.63;5073076;27;47372;-54